sensor_id;sensor_type;location;lat;lon;timestamp;pressure;altitude;pressure_sealevel;temperature;humidity
7888;BME280;3989;48.810;9.208;2023-04-23T00:01:50;98096.56;;;14.15;100.00
7888;BME280;3989;48.810;9.208;2023-04-23T00:04:17;98131.91;;;14.44;100.00
7888;BME280;3989;48.810;9.208;2023-04-23T00:06:46;98058.94;;;13.97;100.00
7888;BME280;3989;48.810;9.208;2023-04-23T00:09:14;98116.47;;;14.33;100.00
7888;BME280;3989;48.810;9.208;2023-04-23T00:11:42;98114.00;;;14.38;100.00
7888;BME280;3989;48.810;9.208;2023-04-23T00:14:09;98146.06;;;14.51;100.00
7888;BME280;3989;48.810;9.208;2023-04-23T00:16:37;98146.00;;;14.57;100.00
7888;BME280;3989;48.810;9.208;2023-04-23T00:19:04;98142.88;;;14.60;100.00
7888;BME280;3989;48.810;9.208;2023-04-23T00:21:31;98136.03;;;14.64;100.00
7888;BME280;3989;48.810;9.208;2023-04-23T00:23:57;98111.09;;;14.57;100.00
7888;BME280;3989;48.810;9.208;2023-04-23T00:26:25;98058.78;;;14.17;100.00
7888;BME280;3989;48.810;9.208;2023-04-23T00:28:52;98132.72;;;14.69;100.00
7888;BME280;3989;48.810;9.208;2023-04-23T00:31:18;98140.91;;;14.74;100.00
7888;BME280;3989;48.810;9.208;2023-04-23T00:33:46;98143.44;;;14.69;100.00
7888;BME280;3989;48.810;9.208;2023-04-23T00:36:13;98135.91;;;14.59;100.00
7888;BME280;3989;48.810;9.208;2023-04-23T00:38:39;98151.94;;;14.41;100.00
7888;BME280;3989;48.810;9.208;2023-04-23T00:41:06;98151.19;;;14.34;100.00
7888;BME280;3989;48.810;9.208;2023-04-23T00:43:34;98024.19;;;13.53;100.00
7888;BME280;3989;48.810;9.208;2023-04-23T00:46:01;98143.63;;;14.18;100.00
7888;BME280;3989;48.810;9.208;2023-04-23T00:48:28;98157.25;;;14.16;100.00
7888;BME280;3989;48.810;9.208;2023-04-23T00:50:58;98078.78;;;13.58;100.00
7888;BME280;3989;48.810;9.208;2023-04-23T00:53:27;98146.22;;;13.93;100.00
7888;BME280;3989;48.810;9.208;2023-04-23T00:55:54;98171.38;;;14.05;100.00
7888;BME280;3989;48.810;9.208;2023-04-23T00:58:21;98170.78;;;13.97;100.00
7888;BME280;3989;48.810;9.208;2023-04-23T01:00:49;98113.50;;;13.47;100.00
7888;BME280;3989;48.810;9.208;2023-04-23T01:03:16;98124.03;;;13.35;100.00
7888;BME280;3989;48.810;9.208;2023-04-23T01:05:46;98035.22;;;12.74;100.00
7888;BME280;3989;48.810;9.208;2023-04-23T01:08:15;98125.72;;;13.30;100.00
7888;BME280;3989;48.810;9.208;2023-04-23T01:10:42;98153.50;;;13.42;100.00
7888;BME280;3989;48.810;9.208;2023-04-23T01:13:10;98121.41;;;13.22;100.00
7888;BME280;3989;48.810;9.208;2023-04-23T01:15:38;98172.66;;;13.45;100.00
7888;BME280;3989;48.810;9.208;2023-04-23T01:18:06;98067.56;;;12.66;100.00
7888;BME280;3989;48.810;9.208;2023-04-23T01:20:33;98175.34;;;13.45;100.00
7888;BME280;3989;48.810;9.208;2023-04-23T01:23:02;98187.47;;;13.54;100.00
7888;BME280;3989;48.810;9.208;2023-04-23T01:25:28;98071.00;;;12.93;100.00
7888;BME280;3989;48.810;9.208;2023-04-23T01:27:55;98134.56;;;13.37;100.00
7888;BME280;3989;48.810;9.208;2023-04-23T01:30:23;98193.47;;;13.56;100.00
7888;BME280;3989;48.810;9.208;2023-04-23T01:32:51;98178.94;;;13.71;100.00
7888;BME280;3989;48.810;9.208;2023-04-23T01:35:19;98139.47;;;13.46;100.00
7888;BME280;3989;48.810;9.208;2023-04-23T01:37:47;98193.81;;;13.73;100.00
7888;BME280;3989;48.810;9.208;2023-04-23T01:40:17;98166.03;;;13.54;100.00
7888;BME280;3989;48.810;9.208;2023-04-23T01:42:43;98172.63;;;13.58;100.00
7888;BME280;3989;48.810;9.208;2023-04-23T01:45:10;98173.03;;;13.55;100.00
7888;BME280;3989;48.810;9.208;2023-04-23T01:47:37;98199.19;;;13.66;100.00
7888;BME280;3989;48.810;9.208;2023-04-23T01:50:04;98198.56;;;13.64;100.00
7888;BME280;3989;48.810;9.208;2023-04-23T01:52:31;98155.56;;;13.40;100.00
7888;BME280;3989;48.810;9.208;2023-04-23T01:54:57;98197.34;;;13.60;100.00
7888;BME280;3989;48.810;9.208;2023-04-23T01:57:26;98193.66;;;13.55;100.00
7888;BME280;3989;48.810;9.208;2023-04-23T01:59:59;98196.16;;;13.50;100.00
7888;BME280;3989;48.810;9.208;2023-04-23T02:02:26;98168.41;;;13.25;100.00
7888;BME280;3989;48.810;9.208;2023-04-23T02:04:53;98199.28;;;13.40;100.00
7888;BME280;3989;48.810;9.208;2023-04-23T02:07:20;98189.19;;;13.29;100.00
7888;BME280;3989;48.810;9.208;2023-04-23T02:09:46;98204.84;;;13.32;100.00
7888;BME280;3989;48.810;9.208;2023-04-23T02:12:13;98194.97;;;13.33;100.00
7888;BME280;3989;48.810;9.208;2023-04-23T02:14:40;98190.22;;;13.28;100.00
7888;BME280;3989;48.810;9.208;2023-04-23T02:17:07;98203.03;;;13.20;100.00
7888;BME280;3989;48.810;9.208;2023-04-23T02:19:34;98220.53;;;13.22;100.00
7888;BME280;3989;48.810;9.208;2023-04-23T02:22:00;98158.34;;;12.81;100.00
7888;BME280;3989;48.810;9.208;2023-04-23T02:24:27;98142.28;;;12.74;100.00
7888;BME280;3989;48.810;9.208;2023-04-23T02:26:53;98226.72;;;13.23;100.00
7888;BME280;3989;48.810;9.208;2023-04-23T02:29:21;98223.03;;;13.17;100.00
7888;BME280;3989;48.810;9.208;2023-04-23T02:31:49;98225.13;;;13.08;100.00
7888;BME280;3989;48.810;9.208;2023-04-23T02:34:15;98219.75;;;12.95;100.00
7888;BME280;3989;48.810;9.208;2023-04-23T02:36:42;98214.81;;;12.86;100.00
7888;BME280;3989;48.810;9.208;2023-04-23T02:39:08;98215.22;;;12.76;100.00
7888;BME280;3989;48.810;9.208;2023-04-23T02:41:35;98214.59;;;12.68;100.00
7888;BME280;3989;48.810;9.208;2023-04-23T02:44:01;98223.66;;;12.60;100.00
7888;BME280;3989;48.810;9.208;2023-04-23T02:46:28;98221.78;;;12.54;100.00
7888;BME280;3989;48.810;9.208;2023-04-23T02:48:57;98209.63;;;12.45;100.00
7888;BME280;3989;48.810;9.208;2023-04-23T02:51:23;98205.31;;;12.37;100.00
7888;BME280;3989;48.810;9.208;2023-04-23T02:53:50;98152.16;;;11.95;100.00
7888;BME280;3989;48.810;9.208;2023-04-23T02:56:16;98128.47;;;11.85;100.00
7888;BME280;3989;48.810;9.208;2023-04-23T02:58:44;98155.63;;;11.89;100.00
7888;BME280;3989;48.810;9.208;2023-04-23T03:01:10;98172.47;;;11.89;100.00
7888;BME280;3989;48.810;9.208;2023-04-23T03:03:37;98221.91;;;12.06;100.00
7888;BME280;3989;48.810;9.208;2023-04-23T03:06:06;98200.06;;;11.96;100.00
7888;BME280;3989;48.810;9.208;2023-04-23T03:08:33;98190.59;;;11.94;100.00
7888;BME280;3989;48.810;9.208;2023-04-23T03:10:59;98134.09;;;11.49;100.00
7888;BME280;3989;48.810;9.208;2023-04-23T03:13:26;98218.81;;;12.03;100.00
7888;BME280;3989;48.810;9.208;2023-04-23T03:15:52;98191.00;;;11.84;100.00
7888;BME280;3989;48.810;9.208;2023-04-23T03:18:19;98215.28;;;11.96;100.00
7888;BME280;3989;48.810;9.208;2023-04-23T03:20:46;98129.31;;;11.38;100.00
7888;BME280;3989;48.810;9.208;2023-04-23T03:23:14;98210.53;;;11.85;100.00
7888;BME280;3989;48.810;9.208;2023-04-23T03:25:41;98211.13;;;11.80;100.00
7888;BME280;3989;48.810;9.208;2023-04-23T03:28:07;98202.50;;;11.78;100.00
7888;BME280;3989;48.810;9.208;2023-04-23T03:30:34;97920.69;;;10.06;100.00
7888;BME280;3989;48.810;9.208;2023-04-23T03:33:01;98198.97;;;11.78;100.00
7888;BME280;3989;48.810;9.208;2023-04-23T03:35:28;98202.06;;;11.75;100.00
7888;BME280;3989;48.810;9.208;2023-04-23T03:37:54;98167.81;;;11.57;100.00
7888;BME280;3989;48.810;9.208;2023-04-23T03:40:23;98184.72;;;11.64;100.00
7888;BME280;3989;48.810;9.208;2023-04-23T03:42:49;98113.41;;;11.17;100.00
7888;BME280;3989;48.810;9.208;2023-04-23T03:45:16;98083.75;;;10.99;100.00
7888;BME280;3989;48.810;9.208;2023-04-23T03:47:43;98176.66;;;11.57;100.00
7888;BME280;3989;48.810;9.208;2023-04-23T03:50:10;98193.38;;;11.66;100.00
7888;BME280;3989;48.810;9.208;2023-04-23T03:52:38;98190.28;;;11.63;100.00
7888;BME280;3989;48.810;9.208;2023-04-23T03:55:05;98189.44;;;11.62;100.00
7888;BME280;3989;48.810;9.208;2023-04-23T03:57:34;98151.09;;;11.35;100.00
7888;BME280;3989;48.810;9.208;2023-04-23T04:00:00;98199.22;;;11.42;100.00
7888;BME280;3989;48.810;9.208;2023-04-23T04:02:27;98198.44;;;11.54;100.00
7888;BME280;3989;48.810;9.208;2023-04-23T04:04:53;98231.34;;;11.55;100.00
7888;BME280;3989;48.810;9.208;2023-04-23T04:07:20;98187.50;;;11.43;100.00
7888;BME280;3989;48.810;9.208;2023-04-23T04:09:47;98211.84;;;11.61;100.00
7888;BME280;3989;48.810;9.208;2023-04-23T04:12:14;98205.44;;;11.55;100.00
7888;BME280;3989;48.810;9.208;2023-04-23T04:14:42;98195.78;;;11.54;100.00
7888;BME280;3989;48.810;9.208;2023-04-23T04:17:09;98196.00;;;11.53;100.00
7888;BME280;3989;48.810;9.208;2023-04-23T04:19:36;98217.81;;;11.70;100.00
7888;BME280;3989;48.810;9.208;2023-04-23T04:22:03;98209.78;;;11.56;100.00
7888;BME280;3989;48.810;9.208;2023-04-23T04:24:29;98204.63;;;11.55;100.00
7888;BME280;3989;48.810;9.208;2023-04-23T04:26:57;98210.94;;;11.47;100.00
7888;BME280;3989;48.810;9.208;2023-04-23T04:29:24;98187.41;;;11.23;100.00
7888;BME280;3989;48.810;9.208;2023-04-23T04:31:52;98219.94;;;11.33;100.00
7888;BME280;3989;48.810;9.208;2023-04-23T04:34:18;98221.13;;;11.24;100.00
7888;BME280;3989;48.810;9.208;2023-04-23T04:36:45;98179.63;;;10.94;100.00
7888;BME280;3989;48.810;9.208;2023-04-23T04:39:12;98228.03;;;11.19;100.00
7888;BME280;3989;48.810;9.208;2023-04-23T04:41:39;98052.66;;;10.16;100.00
7888;BME280;3989;48.810;9.208;2023-04-23T04:44:07;98120.91;;;10.60;100.00
7888;BME280;3989;48.810;9.208;2023-04-23T04:46:33;98051.75;;;10.30;100.00
7888;BME280;3989;48.810;9.208;2023-04-23T04:49:06;98090.31;;;10.62;100.00
7888;BME280;3989;48.810;9.208;2023-04-23T04:51:32;98222.84;;;11.45;100.00
7888;BME280;3989;48.810;9.208;2023-04-23T04:53:59;98203.06;;;11.33;100.00
7888;BME280;3989;48.810;9.208;2023-04-23T04:56:25;98190.28;;;11.28;100.00
7888;BME280;3989;48.810;9.208;2023-04-23T04:58:52;98224.94;;;11.49;100.00
7888;BME280;3989;48.810;9.208;2023-04-23T05:01:19;98229.06;;;11.52;100.00
7888;BME280;3989;48.810;9.208;2023-04-23T05:03:45;98225.81;;;11.56;100.00
7888;BME280;3989;48.810;9.208;2023-04-23T05:06:14;98155.34;;;11.23;100.00
7888;BME280;3989;48.810;9.208;2023-04-23T05:08:40;98238.22;;;11.71;100.00
7888;BME280;3989;48.810;9.208;2023-04-23T05:11:12;98221.19;;;11.78;100.00
7888;BME280;3989;48.810;9.208;2023-04-23T05:13:39;98146.38;;;11.44;100.00
7888;BME280;3989;48.810;9.208;2023-04-23T05:16:05;98159.81;;;11.64;100.00
7888;BME280;3989;48.810;9.208;2023-04-23T05:18:32;98210.78;;;12.03;100.00
7888;BME280;3989;48.810;9.208;2023-04-23T05:20:59;98183.66;;;12.13;100.00
7888;BME280;3989;48.810;9.208;2023-04-23T05:23:27;98177.09;;;12.28;100.00
7888;BME280;3989;48.810;9.208;2023-04-23T05:25:54;98162.50;;;12.44;100.00
7888;BME280;3989;48.810;9.208;2023-04-23T05:28:22;98175.06;;;12.63;100.00
7888;BME280;3989;48.810;9.208;2023-04-23T05:30:49;98227.38;;;13.11;100.00
7888;BME280;3989;48.810;9.208;2023-04-23T05:33:16;98196.84;;;13.06;100.00
7888;BME280;3989;48.810;9.208;2023-04-23T05:35:43;98234.31;;;13.45;100.00
7888;BME280;3989;48.810;9.208;2023-04-23T05:38:09;98205.66;;;13.39;100.00
7888;BME280;3989;48.810;9.208;2023-04-23T05:40:40;98226.81;;;13.67;100.00
7888;BME280;3989;48.810;9.208;2023-04-23T05:43:07;98217.75;;;13.68;100.00
7888;BME280;3989;48.810;9.208;2023-04-23T05:45:33;98221.19;;;13.82;100.00
7888;BME280;3989;48.810;9.208;2023-04-23T05:48:00;98230.25;;;13.87;100.00
7888;BME280;3989;48.810;9.208;2023-04-23T05:50:26;98226.28;;;13.96;100.00
7888;BME280;3989;48.810;9.208;2023-04-23T05:52:53;98221.50;;;14.05;100.00
7888;BME280;3989;48.810;9.208;2023-04-23T05:55:20;98226.94;;;14.30;100.00
7888;BME280;3989;48.810;9.208;2023-04-23T05:57:49;98221.91;;;14.46;100.00
7888;BME280;3989;48.810;9.208;2023-04-23T06:00:16;98220.22;;;14.52;100.00
7888;BME280;3989;48.810;9.208;2023-04-23T06:02:43;98201.91;;;14.42;100.00
7888;BME280;3989;48.810;9.208;2023-04-23T06:05:09;98192.03;;;14.30;100.00
7888;BME280;3989;48.810;9.208;2023-04-23T06:07:36;98223.38;;;14.42;100.00
7888;BME280;3989;48.810;9.208;2023-04-23T06:10:04;98217.38;;;14.47;100.00
7888;BME280;3989;48.810;9.208;2023-04-23T06:12:30;98223.78;;;14.70;100.00
7888;BME280;3989;48.810;9.208;2023-04-23T06:14:58;98228.22;;;14.83;100.00
7888;BME280;3989;48.810;9.208;2023-04-23T06:17:25;98231.03;;;14.95;100.00
7888;BME280;3989;48.810;9.208;2023-04-23T06:19:51;98221.28;;;15.00;100.00
7888;BME280;3989;48.810;9.208;2023-04-23T06:22:18;98239.38;;;15.11;100.00
7888;BME280;3989;48.810;9.208;2023-04-23T06:24:44;98116.38;;;14.46;100.00
7888;BME280;3989;48.810;9.208;2023-04-23T06:27:12;98245.72;;;15.17;100.00
7888;BME280;3989;48.810;9.208;2023-04-23T06:29:41;98224.66;;;15.14;100.00
7888;BME280;3989;48.810;9.208;2023-04-23T06:32:09;98111.06;;;14.39;100.00
7888;BME280;3989;48.810;9.208;2023-04-23T06:34:35;98235.63;;;15.12;100.00
7888;BME280;3989;48.810;9.208;2023-04-23T06:37:02;98168.22;;;14.71;100.00
7888;BME280;3989;48.810;9.208;2023-04-23T06:39:29;98195.66;;;14.98;100.00
7888;BME280;3989;48.810;9.208;2023-04-23T06:41:55;98164.66;;;14.77;100.00
7888;BME280;3989;48.810;9.208;2023-04-23T06:44:22;98222.81;;;15.14;100.00
7888;BME280;3989;48.810;9.208;2023-04-23T06:46:49;98219.66;;;15.17;100.00
7888;BME280;3989;48.810;9.208;2023-04-23T06:49:16;98183.75;;;15.12;100.00
7888;BME280;3989;48.810;9.208;2023-04-23T06:51:43;98157.16;;;15.04;100.00
7888;BME280;3989;48.810;9.208;2023-04-23T06:54:10;98206.22;;;15.60;100.00
7888;BME280;3989;48.810;9.208;2023-04-23T06:56:36;98198.28;;;15.65;100.00
7888;BME280;3989;48.810;9.208;2023-04-23T06:59:03;98077.34;;;14.68;100.00
7888;BME280;3989;48.810;9.208;2023-04-23T07:01:30;97975.66;;;14.10;100.00
7888;BME280;3989;48.810;9.208;2023-04-23T07:03:57;98168.28;;;15.50;100.00
7888;BME280;3989;48.810;9.208;2023-04-23T07:06:25;98173.88;;;15.67;100.00
7888;BME280;3989;48.810;9.208;2023-04-23T07:08:54;98145.44;;;15.71;100.00
7888;BME280;3989;48.810;9.208;2023-04-23T07:11:21;98198.59;;;16.35;100.00
7888;BME280;3989;48.810;9.208;2023-04-23T07:13:47;98108.56;;;15.90;100.00
7888;BME280;3989;48.810;9.208;2023-04-23T07:16:14;98187.34;;;16.68;100.00
7888;BME280;3989;48.810;9.208;2023-04-23T07:18:40;98187.13;;;16.81;100.00
7888;BME280;3989;48.810;9.208;2023-04-23T07:21:07;98085.13;;;16.08;100.00
7888;BME280;3989;48.810;9.208;2023-04-23T07:23:35;98193.13;;;17.06;100.00
7888;BME280;3989;48.810;9.208;2023-04-23T07:26:01;98116.66;;;16.54;100.00
7888;BME280;3989;48.810;9.208;2023-04-23T07:28:28;98039.13;;;15.68;100.00
7888;BME280;3989;48.810;9.208;2023-04-23T07:30:55;98102.09;;;15.79;100.00
7888;BME280;3989;48.810;9.208;2023-04-23T07:33:22;98076.38;;;15.35;100.00
7888;BME280;3989;48.810;9.208;2023-04-23T07:35:48;98195.72;;;15.89;100.00
7888;BME280;3989;48.810;9.208;2023-04-23T07:38:15;98167.81;;;15.53;100.00
7888;BME280;3989;48.810;9.208;2023-04-23T07:40:43;98185.28;;;15.62;100.00
7888;BME280;3989;48.810;9.208;2023-04-23T07:43:09;98184.97;;;15.70;100.00
7888;BME280;3989;48.810;9.208;2023-04-23T07:45:36;98186.34;;;15.80;100.00
7888;BME280;3989;48.810;9.208;2023-04-23T07:48:03;98092.81;;;15.27;100.00
7888;BME280;3989;48.810;9.208;2023-04-23T07:50:30;98189.81;;;15.98;100.00
7888;BME280;3989;48.810;9.208;2023-04-23T07:52:57;98173.78;;;16.03;100.00
7888;BME280;3989;48.810;9.208;2023-04-23T07:55:23;98051.72;;;15.38;100.00
7888;BME280;3989;48.810;9.208;2023-04-23T07:57:51;98141.00;;;15.95;100.00
7888;BME280;3989;48.810;9.208;2023-04-23T08:00:18;98145.00;;;16.04;100.00
7888;BME280;3989;48.810;9.208;2023-04-23T08:02:45;98150.38;;;16.04;100.00
7888;BME280;3989;48.810;9.208;2023-04-23T08:05:12;98144.44;;;16.02;100.00
7888;BME280;3989;48.810;9.208;2023-04-23T08:07:38;98171.91;;;16.34;100.00
7888;BME280;3989;48.810;9.208;2023-04-23T08:10:06;98077.38;;;16.00;100.00
7888;BME280;3989;48.810;9.208;2023-04-23T08:12:33;98171.47;;;16.90;100.00
7888;BME280;3989;48.810;9.208;2023-04-23T08:15:01;98154.31;;;17.19;100.00
7888;BME280;3989;48.810;9.208;2023-04-23T08:17:28;98144.09;;;17.32;91.15
7888;BME280;3989;48.810;9.208;2023-04-23T08:19:55;98115.78;;;17.18;86.88
7888;BME280;3989;48.810;9.208;2023-04-23T08:22:21;98140.84;;;17.30;88.58
7888;BME280;3989;48.810;9.208;2023-04-23T08:24:48;98114.94;;;17.18;87.08
7888;BME280;3989;48.810;9.208;2023-04-23T08:27:14;98125.34;;;17.26;86.76
7888;BME280;3989;48.810;9.208;2023-04-23T08:29:41;98125.72;;;17.18;85.95
7888;BME280;3989;48.810;9.208;2023-04-23T08:32:09;98102.72;;;17.27;89.93
7888;BME280;3989;48.810;9.208;2023-04-23T08:34:35;98072.19;;;17.50;85.26
7888;BME280;3989;48.810;9.208;2023-04-23T08:37:02;98149.50;;;18.41;77.12
7888;BME280;3989;48.810;9.208;2023-04-23T08:39:29;98143.47;;;18.67;74.99
7888;BME280;3989;48.810;9.208;2023-04-23T08:42:01;98017.34;;;18.22;71.53
7888;BME280;3989;48.810;9.208;2023-04-23T08:44:30;98129.75;;;19.07;68.40
7888;BME280;3989;48.810;9.208;2023-04-23T08:47:01;98147.41;;;19.31;68.54
7888;BME280;3989;48.810;9.208;2023-04-23T08:49:32;98126.91;;;19.35;67.12
7888;BME280;3989;48.810;9.208;2023-04-23T08:52:14;98133.41;;;19.56;61.94
7888;BME280;3989;48.810;9.208;2023-04-23T08:54:47;98136.06;;;19.51;58.53
7888;BME280;3989;48.810;9.208;2023-04-23T08:57:15;98144.06;;;19.24;60.40
7888;BME280;3989;48.810;9.208;2023-04-23T08:59:43;98145.59;;;18.81;61.78
7888;BME280;3989;48.810;9.208;2023-04-23T09:02:10;98140.13;;;18.76;62.94
7888;BME280;3989;48.810;9.208;2023-04-23T09:04:38;98144.16;;;18.74;62.24
7888;BME280;3989;48.810;9.208;2023-04-23T09:07:05;98139.13;;;18.66;62.56
7888;BME280;3989;48.810;9.208;2023-04-23T09:09:36;98130.53;;;18.69;62.95
7888;BME280;3989;48.810;9.208;2023-04-23T09:12:03;98127.53;;;19.04;63.57
7888;BME280;3989;48.810;9.208;2023-04-23T09:14:30;98078.72;;;18.94;60.45
7888;BME280;3989;48.810;9.208;2023-04-23T09:16:57;98121.41;;;19.30;59.83
7888;BME280;3989;48.810;9.208;2023-04-23T09:19:25;98123.59;;;19.50;61.02
7888;BME280;3989;48.810;9.208;2023-04-23T09:21:54;98115.34;;;19.61;59.00
7888;BME280;3989;48.810;9.208;2023-04-23T09:24:21;98116.59;;;19.75;58.94
7888;BME280;3989;48.810;9.208;2023-04-23T09:26:49;98110.09;;;19.98;56.67
7888;BME280;3989;48.810;9.208;2023-04-23T09:29:17;98100.69;;;20.32;52.91
7888;BME280;3989;48.810;9.208;2023-04-23T09:31:44;98100.44;;;20.66;52.86
7888;BME280;3989;48.810;9.208;2023-04-23T09:34:13;98078.81;;;20.76;50.25
7888;BME280;3989;48.810;9.208;2023-04-23T09:36:41;98091.91;;;20.84;50.07
7888;BME280;3989;48.810;9.208;2023-04-23T09:39:11;98064.19;;;20.40;50.69
7888;BME280;3989;48.810;9.208;2023-04-23T09:41:38;98093.31;;;20.55;49.91
7888;BME280;3989;48.810;9.208;2023-04-23T09:44:05;98084.50;;;20.42;50.37
7888;BME280;3989;48.810;9.208;2023-04-23T09:46:34;98046.66;;;19.94;51.09
7888;BME280;3989;48.810;9.208;2023-04-23T09:49:02;98065.38;;;19.96;49.85
7888;BME280;3989;48.810;9.208;2023-04-23T09:51:30;98051.03;;;19.95;50.22
7888;BME280;3989;48.810;9.208;2023-04-23T09:53:57;98064.09;;;20.03;49.62
7888;BME280;3989;48.810;9.208;2023-04-23T09:56:25;98062.31;;;20.46;48.84
7888;BME280;3989;48.810;9.208;2023-04-23T09:58:51;98067.16;;;20.75;48.83
7888;BME280;3989;48.810;9.208;2023-04-23T10:01:26;98038.50;;;20.94;48.26
7888;BME280;3989;48.810;9.208;2023-04-23T10:03:53;98052.06;;;21.46;46.27
7888;BME280;3989;48.810;9.208;2023-04-23T10:06:26;98061.19;;;21.92;44.53
7888;BME280;3989;48.810;9.208;2023-04-23T10:08:54;98047.66;;;22.23;43.45
7888;BME280;3989;48.810;9.208;2023-04-23T10:11:22;98050.91;;;22.60;42.31
7888;BME280;3989;48.810;9.208;2023-04-23T10:13:50;98046.81;;;22.83;41.31
7888;BME280;3989;48.810;9.208;2023-04-23T10:16:20;98043.78;;;22.94;40.51
7888;BME280;3989;48.810;9.208;2023-04-23T10:18:47;98036.41;;;23.10;39.16
7888;BME280;3989;48.810;9.208;2023-04-23T10:21:15;98036.38;;;23.15;39.80
7888;BME280;3989;48.810;9.208;2023-04-23T10:23:43;98032.66;;;22.86;40.06
7888;BME280;3989;48.810;9.208;2023-04-23T10:26:14;98034.34;;;22.67;40.50
7888;BME280;3989;48.810;9.208;2023-04-23T10:28:43;98031.88;;;22.70;40.02
7888;BME280;3989;48.810;9.208;2023-04-23T10:31:14;98000.59;;;22.63;39.51
7888;BME280;3989;48.810;9.208;2023-04-23T10:33:42;98021.75;;;22.91;40.19
7888;BME280;3989;48.810;9.208;2023-04-23T10:36:09;97984.00;;;22.59;40.78
7888;BME280;3989;48.810;9.208;2023-04-23T10:38:36;98004.94;;;22.84;40.96
7888;BME280;3989;48.810;9.208;2023-04-23T10:41:04;98016.63;;;22.79;40.94
7888;BME280;3989;48.810;9.208;2023-04-23T10:43:33;98013.38;;;22.77;40.70
7888;BME280;3989;48.810;9.208;2023-04-23T10:46:01;97972.63;;;22.27;40.40
7888;BME280;3989;48.810;9.208;2023-04-23T10:48:57;98006.06;;;22.47;40.82
7888;BME280;3989;48.810;9.208;2023-04-23T10:51:33;97961.19;;;22.50;41.69
7888;BME280;3989;48.810;9.208;2023-04-23T10:54:01;97995.06;;;23.03;42.11
7888;BME280;3989;48.810;9.208;2023-04-23T10:56:28;97990.44;;;22.98;42.01
7888;BME280;3989;48.810;9.208;2023-04-23T10:58:55;97992.06;;;23.05;42.07
7888;BME280;3989;48.810;9.208;2023-04-23T11:01:23;97959.78;;;22.83;41.84
7888;BME280;3989;48.810;9.208;2023-04-23T11:03:52;97978.50;;;22.99;42.26
7888;BME280;3989;48.810;9.208;2023-04-23T11:06:55;97988.91;;;23.36;41.15
7888;BME280;3989;48.810;9.208;2023-04-23T11:09:35;97978.25;;;23.50;40.38
7888;BME280;3989;48.810;9.208;2023-04-23T11:12:06;97976.69;;;23.34;40.47
7888;BME280;3989;48.810;9.208;2023-04-23T11:14:34;97925.97;;;22.99;40.76
7888;BME280;3989;48.810;9.208;2023-04-23T11:17:02;97979.16;;;23.30;41.27
7888;BME280;3989;48.810;9.208;2023-04-23T11:19:30;97973.50;;;23.17;41.45
7888;BME280;3989;48.810;9.208;2023-04-23T11:22:01;97964.84;;;23.05;41.61
7888;BME280;3989;48.810;9.208;2023-04-23T11:24:29;97968.97;;;22.92;40.95
7888;BME280;3989;48.810;9.208;2023-04-23T11:26:57;97915.38;;;22.92;40.73
7888;BME280;3989;48.810;9.208;2023-04-23T11:29:25;97922.16;;;22.95;38.86
7888;BME280;3989;48.810;9.208;2023-04-23T11:31:53;97954.03;;;22.89;38.84
7888;BME280;3989;48.810;9.208;2023-04-23T11:34:21;97942.66;;;22.77;39.22
7888;BME280;3989;48.810;9.208;2023-04-23T11:36:51;97957.78;;;23.04;38.36
7888;BME280;3989;48.810;9.208;2023-04-23T11:39:18;97932.94;;;23.20;38.70
7888;BME280;3989;48.810;9.208;2023-04-23T11:41:45;97900.63;;;23.09;38.66
7888;BME280;3989;48.810;9.208;2023-04-23T11:44:14;97910.28;;;23.30;38.68
7888;BME280;3989;48.810;9.208;2023-04-23T11:46:41;97928.66;;;23.58;38.33
7888;BME280;3989;48.810;9.208;2023-04-23T11:49:08;97936.59;;;23.88;38.12
7888;BME280;3989;48.810;9.208;2023-04-23T11:51:40;97930.91;;;24.19;37.46
7888;BME280;3989;48.810;9.208;2023-04-23T11:54:09;97903.91;;;24.22;37.48
7888;BME280;3989;48.810;9.208;2023-04-23T11:56:36;97916.78;;;24.40;37.34
7888;BME280;3989;48.810;9.208;2023-04-23T11:59:04;97916.03;;;24.35;36.66
7888;BME280;3989;48.810;9.208;2023-04-23T12:01:44;97888.84;;;23.96;36.55
7888;BME280;3989;48.810;9.208;2023-04-23T12:04:12;97892.28;;;24.12;37.41
7888;BME280;3989;48.810;9.208;2023-04-23T12:06:41;97890.09;;;24.37;37.23
7888;BME280;3989;48.810;9.208;2023-04-23T12:09:11;97897.75;;;24.07;37.83
7888;BME280;3989;48.810;9.208;2023-04-23T12:11:38;97890.38;;;24.12;37.95
7888;BME280;3989;48.810;9.208;2023-04-23T12:14:06;97874.25;;;24.16;37.38
7888;BME280;3989;48.810;9.208;2023-04-23T12:16:34;97819.28;;;24.03;36.95
7888;BME280;3989;48.810;9.208;2023-04-23T12:19:01;97883.94;;;24.27;37.40
7888;BME280;3989;48.810;9.208;2023-04-23T12:21:28;97831.22;;;23.84;37.40
7888;BME280;3989;48.810;9.208;2023-04-23T12:23:56;97885.44;;;23.80;38.10
7888;BME280;3989;48.810;9.208;2023-04-23T12:26:24;97860.03;;;23.56;38.57
7888;BME280;3989;48.810;9.208;2023-04-23T12:28:53;97851.03;;;23.17;39.25
7888;BME280;3989;48.810;9.208;2023-04-23T12:31:21;97822.72;;;22.74;39.39
7888;BME280;3989;48.810;9.208;2023-04-23T12:33:55;97855.88;;;22.76;38.37
7888;BME280;3989;48.810;9.208;2023-04-23T12:36:26;97862.97;;;22.77;39.33
7888;BME280;3989;48.810;9.208;2023-04-23T12:38:53;97842.84;;;22.78;39.68
7888;BME280;3989;48.810;9.208;2023-04-23T12:41:20;97857.59;;;23.55;39.31
7888;BME280;3989;48.810;9.208;2023-04-23T12:43:48;97827.97;;;23.48;38.68
7888;BME280;3989;48.810;9.208;2023-04-23T12:46:15;97841.09;;;23.75;38.40
7888;BME280;3989;48.810;9.208;2023-04-23T12:48:42;97843.13;;;23.88;37.97
7888;BME280;3989;48.810;9.208;2023-04-23T12:51:09;97830.75;;;23.72;38.30
7888;BME280;3989;48.810;9.208;2023-04-23T12:53:35;97812.22;;;23.40;37.71
7888;BME280;3989;48.810;9.208;2023-04-23T12:56:02;97790.94;;;23.13;39.06
7888;BME280;3989;48.810;9.208;2023-04-23T12:58:29;97831.03;;;23.41;38.43
7888;BME280;3989;48.810;9.208;2023-04-23T13:00:57;97835.84;;;23.49;37.77
7888;BME280;3989;48.810;9.208;2023-04-23T13:03:23;97813.47;;;23.19;38.43
7888;BME280;3989;48.810;9.208;2023-04-23T13:05:50;97776.38;;;22.89;38.67
7888;BME280;3989;48.810;9.208;2023-04-23T13:10:48;97803.53;;;22.40;40.02
7888;BME280;3989;48.810;9.208;2023-04-23T13:13:15;97786.75;;;22.82;39.80
7888;BME280;3989;48.810;9.208;2023-04-23T13:15:41;97790.06;;;23.18;38.61
7888;BME280;3989;48.810;9.208;2023-04-23T13:18:09;97784.88;;;23.21;39.04
7888;BME280;3989;48.810;9.208;2023-04-23T13:20:36;97759.03;;;23.19;38.90